PWSweather.com
Personal Weather Stations
Station Observations
SWHWX01
St AppolinardFR 38160

St AppolinardFR 38160

Lat: 45.191, Lon: 5.268

Elevation: 1460

Station Type: Davis Vantage Pro2 Plus

www.sweetwebhome.com/?show=wxindex

High Low Average
Temperature 74.0°F23.3°C 55.6°F13.1°C 65.0°F18.3°C
Dew Point 60.9°F16.1°C 53.3°F11.8°C 57.1°F13.9°C
Winds 7.7 mph 12.4 kmh Calm Calm 2.0 mph WSW3.2 kmh WSW
Wind Gusts 9.0 mph14.5 kmh -- 4.0 mph6.4 kmh
Humidity 92% 59% 77%
Pressure 30.11 in1019.6 mb 30.04 in1017.3 mb -
Precipitation 0.00 in0.0 mm - -
Hour Temp Dew Point Humidity Winds Wind Gusts Pressure Precip Precip Rate Daily Precip Total
12:00 AM 58.8°F14.9°C 54.9°F12.7°C 87% 0.7 mph WSW1.1 kmh WSW 1.0 mph1.6 kmh 30.08 in1018.6 mb - 0.00 in0.0 mm 0.00 in0.0 mm
12:30 AM 57.9°F14.4°C 54.7°F12.6°C 89% 2.3 mph WSW3.7 kmh WSW 3.0 mph4.8 kmh 30.08 in1018.6 mb - 0.00 in0.0 mm 0.00 in0.0 mm
01:00 AM 57.6°F14.2°C 54.7°F12.6°C 90% 2.3 mph WSW3.7 kmh WSW 3.0 mph4.8 kmh 30.09 in1019.0 mb - 0.00 in0.0 mm 0.00 in0.0 mm
01:30 AM 58.2°F14.6°C 54.7°F12.6°C 88% 1.6 mph WSW2.6 kmh WSW 3.0 mph4.8 kmh 30.09 in1019.0 mb - 0.00 in0.0 mm 0.00 in0.0 mm
02:00 AM 57.4°F14.1°C 54.5°F12.5°C 90% Calm Calm -- 30.09 in1019.0 mb - 0.00 in0.0 mm 0.00 in0.0 mm
02:30 AM 56.3°F13.5°C 54.0°F12.2°C 92% Calm Calm -- 30.09 in1019.0 mb - 0.00 in0.0 mm 0.00 in0.0 mm
03:00 AM 56.7°F13.7°C 54.4°F12.4°C 92% Calm Calm -- 30.09 in1019.0 mb - 0.00 in0.0 mm 0.00 in0.0 mm
03:30 AM 55.9°F13.3°C 53.7°F12.1°C 92% 2.7 mph WSW4.3 kmh WSW 3.0 mph4.8 kmh 30.09 in1019.0 mb - 0.00 in0.0 mm 0.00 in0.0 mm
04:00 AM 56.6°F13.7°C 54.3°F12.4°C 92% 1.4 mph WSW2.3 kmh WSW 2.0 mph3.2 kmh 30.08 in1018.6 mb - 0.00 in0.0 mm 0.00 in0.0 mm
04:30 AM 56.2°F13.4°C 53.6°F12.0°C 91% Calm Calm -- 30.08 in1018.6 mb - 0.00 in0.0 mm 0.00 in0.0 mm
05:00 AM 55.6°F13.1°C 53.3°F11.8°C 92% 3.0 mph WSW4.8 kmh WSW 4.0 mph6.4 kmh 30.08 in1018.6 mb - 0.00 in0.0 mm 0.00 in0.0 mm
05:30 AM 57.3°F14.1°C 54.7°F12.6°C 91% Calm Calm 1.0 mph1.6 kmh 30.08 in1018.6 mb - 0.00 in0.0 mm 0.00 in0.0 mm
06:00 AM 56.8°F13.8°C 54.2°F12.3°C 91% 0.1 mph WSW0.2 kmh WSW -- 30.09 in1019.0 mb - 0.00 in0.0 mm 0.00 in0.0 mm
06:30 AM 58.7°F14.8°C 56.1°F13.4°C 91% Calm Calm -- 30.09 in1019.0 mb - 0.00 in0.0 mm 0.00 in0.0 mm
07:00 AM 61.0°F16.1°C 57.1°F13.9°C 87% 0.3 mph WSW0.5 kmh WSW 1.0 mph1.6 kmh 30.10 in1019.3 mb - 0.00 in0.0 mm 0.00 in0.0 mm
07:30 AM 62.5°F16.9°C 58.6°F14.8°C 87% Calm Calm -- 30.10 in1019.3 mb - 0.00 in0.0 mm 0.00 in0.0 mm
08:00 AM 64.4°F18.0°C 58.5°F14.7°C 81% 0.9 mph WSW1.4 kmh WSW 1.0 mph1.6 kmh 30.10 in1019.3 mb - 0.00 in0.0 mm 0.00 in0.0 mm
08:30 AM 64.6°F18.1°C 59.0°F15.0°C 82% 2.6 mph SW4.2 kmh SW 4.0 mph6.4 kmh 30.10 in1019.3 mb - 0.00 in0.0 mm 0.00 in0.0 mm
09:00 AM 64.9°F18.3°C 58.6°F14.8°C 80% 0.6 mph SSW1.0 kmh SSW 2.0 mph3.2 kmh 30.11 in1019.6 mb - 0.00 in0.0 mm 0.00 in0.0 mm
09:30 AM 67.7°F19.8°C 60.6°F15.9°C 78% 0.8 mph S1.3 kmh S 2.0 mph3.2 kmh 30.11 in1019.6 mb - 0.00 in0.0 mm 0.00 in0.0 mm
10:00 AM 64.7°F18.2°C 57.3°F14.1°C 77% 4.4 mph NNW7.1 kmh NNW 6.0 mph9.7 kmh 30.11 in1019.6 mb - 0.00 in0.0 mm 0.00 in0.0 mm
10:30 AM 66.5°F19.2°C 57.2°F14.0°C 72% 3.2 mph N5.1 kmh N 4.0 mph6.4 kmh 30.11 in1019.6 mb - 0.00 in0.0 mm 0.00 in0.0 mm
11:00 AM 67.2°F19.6°C 57.9°F14.4°C 72% 4.4 mph NW7.1 kmh NW 7.0 mph11.3 kmh 30.11 in1019.6 mb - 0.00 in0.0 mm 0.00 in0.0 mm
11:30 AM 67.9°F19.9°C 58.1°F14.5°C 71% 7.7 mph NNW12.4 kmh NNW 9.0 mph14.5 kmh 30.11 in1019.6 mb - 0.00 in0.0 mm 0.00 in0.0 mm
12:00 PM 68.7°F20.4°C 58.9°F14.9°C 71% 1.9 mph N3.1 kmh N 6.0 mph9.7 kmh 30.11 in1019.6 mb - 0.00 in0.0 mm 0.00 in0.0 mm
12:30 PM 70.5°F21.4°C 58.2°F14.6°C 65% 1.4 mph N2.3 kmh N 6.0 mph9.7 kmh 30.10 in1019.3 mb - 0.00 in0.0 mm 0.00 in0.0 mm
01:00 PM 70.6°F21.4°C 58.7°F14.8°C 66% 1.6 mph NNW2.6 kmh NNW 4.0 mph6.4 kmh 30.09 in1019.0 mb - 0.00 in0.0 mm 0.00 in0.0 mm
01:30 PM 70.2°F21.2°C 57.5°F14.2°C 64% 1.5 mph NNW2.4 kmh NNW 1.0 mph1.6 kmh 30.09 in1019.0 mb - 0.00 in0.0 mm 0.00 in0.0 mm
02:00 PM 72.1°F22.3°C 57.9°F14.4°C 61% 4.1 mph NNW6.6 kmh NNW 9.0 mph14.5 kmh 30.08 in1018.6 mb - 0.00 in0.0 mm 0.00 in0.0 mm
02:30 PM 72.8°F22.7°C 59.0°F15.0°C 62% 3.7 mph NW6.0 kmh NW 6.0 mph9.7 kmh 30.07 in1018.3 mb - 0.00 in0.0 mm 0.00 in0.0 mm
03:00 PM 74.0°F23.3°C 59.7°F15.4°C 61% 1.5 mph N2.4 kmh N 5.0 mph8.0 kmh 30.06 in1017.9 mb - 0.00 in0.0 mm 0.00 in0.0 mm
03:30 PM 72.2°F22.3°C 57.1°F13.9°C 59% 3.6 mph NNW5.8 kmh NNW 7.0 mph11.3 kmh 30.06 in1017.9 mb - 0.00 in0.0 mm 0.00 in0.0 mm
04:00 PM 72.7°F22.6°C 58.0°F14.4°C 60% 4.6 mph NNE7.4 kmh NNE 9.0 mph14.5 kmh 30.05 in1017.6 mb - 0.00 in0.0 mm 0.00 in0.0 mm
04:30 PM 72.8°F22.7°C 57.6°F14.2°C 59% 5.8 mph N9.3 kmh N 8.0 mph12.9 kmh 30.05 in1017.6 mb - 0.00 in0.0 mm 0.00 in0.0 mm
05:00 PM 72.6°F22.6°C 58.8°F14.9°C 62% 5.1 mph NNW8.2 kmh NNW 7.0 mph11.3 kmh 30.04 in1017.3 mb - 0.00 in0.0 mm 0.00 in0.0 mm
05:30 PM 73.8°F23.2°C 60.9°F16.1°C 64% 0.1 mph NNE0.2 kmh NNE 1.0 mph1.6 kmh 30.04 in1017.3 mb - 0.00 in0.0 mm 0.00 in0.0 mm
06:00 PM 72.1°F22.3°C 59.2°F15.1°C 64% 1.2 mph NE1.9 kmh NE 9.0 mph14.5 kmh 30.04 in1017.3 mb - 0.00 in0.0 mm 0.00 in0.0 mm
06:30 PM 70.4°F21.3°C 58.9°F14.9°C 67% 1.8 mph N2.9 kmh N 3.0 mph4.8 kmh 30.04 in1017.3 mb - 0.00 in0.0 mm 0.00 in0.0 mm
07:00 PM 69.6°F20.9°C 58.6°F14.8°C 68% 3.9 mph NNW6.3 kmh NNW 7.0 mph11.3 kmh 30.04 in1017.3 mb - 0.00 in0.0 mm 0.00 in0.0 mm
07:30 PM 68.1°F20.1°C 57.9°F14.4°C 70% 3.9 mph N6.3 kmh N 5.0 mph8.0 kmh 30.05 in1017.6 mb - 0.00 in0.0 mm 0.00 in0.0 mm
08:00 PM 66.8°F19.3°C 57.5°F14.2°C 72% 2.7 mph N4.3 kmh N 4.0 mph6.4 kmh 30.06 in1017.9 mb - 0.00 in0.0 mm 0.00 in0.0 mm
08:30 PM 65.9°F18.8°C 57.7°F14.3°C 75% 2.0 mph N3.2 kmh N 5.0 mph8.0 kmh 30.07 in1018.3 mb - 0.00 in0.0 mm 0.00 in0.0 mm
09:00 PM 64.8°F18.2°C 57.1°F13.9°C 76% 2.3 mph NNW3.7 kmh NNW 6.0 mph9.7 kmh 30.07 in1018.3 mb - 0.00 in0.0 mm 0.00 in0.0 mm
09:30 PM 64.4°F18.0°C 57.4°F14.1°C 78% 6.3 mph NNW10.1 kmh NNW 9.0 mph14.5 kmh 30.07 in1018.3 mb - 0.00 in0.0 mm 0.00 in0.0 mm
10:00 PM 63.8°F17.7°C 57.5°F14.2°C 80% 4.6 mph N7.4 kmh N 7.0 mph11.3 kmh 30.07 in1018.3 mb - 0.00 in0.0 mm 0.00 in0.0 mm
10:30 PM 62.6°F17.0°C 56.7°F13.7°C 81% 2.3 mph E3.7 kmh E 7.0 mph11.3 kmh 30.08 in1018.6 mb - 0.00 in0.0 mm 0.00 in0.0 mm
11:00 PM 62.2°F16.8°C 55.9°F13.3°C 80% 1.7 mph ENE2.7 kmh ENE 5.0 mph8.0 kmh 30.08 in1018.6 mb - 0.00 in0.0 mm 0.00 in0.0 mm
11:30 PM 61.9°F16.6°C 55.7°F13.2°C 80% 0.7 mph ENE1.1 kmh ENE 2.0 mph3.2 kmh 30.08 in1018.6 mb - 0.00 in0.0 mm 0.00 in0.0 mm